Time;durP1;ratioP1;P1;durP2;ratioP2;P2;SDS_P1;SDS_P2;PMS_P1;PMS_P2;Temp;Humidity;BMP_temperature;BMP_pressure;BME280_temperature;BME280_humidity;BME280_pressure;Samples;Min_cycle;Max_cycle;Signal;HPM_P1;HPM_P2
2022/04/08 00:00:31;;;;;;;;;;;7.90;91.30;;;;;;5063006;28;19912;-69
2022/04/08 00:02:57;;;;;;;;;;;7.90;91.40;;;;;;5056520;28;20434;-69
2022/04/08 00:05:22;;;;;;;;;;;7.90;91.50;;;;;;5059394;28;19913;-69
2022/04/08 00:07:48;;;;;;;;;;;7.90;91.30;;;;;;5060503;28;20023;-69
2022/04/08 00:10:13;;;;;;;;;;;7.90;91.40;;;;;;5064685;28;19958;-69
2022/04/08 00:12:39;;;;;;;;;;;7.90;91.40;;;;;;5057844;28;20007;-69
2022/04/08 00:15:05;;;;;;;;;;;7.90;91.50;;;;;;5059798;28;19912;-69
2022/04/08 00:17:30;;;;;;;;;;;7.90;91.60;;;;;;5062639;28;19913;-68
2022/04/08 00:19:56;;;;;;;;;;;7.80;91.50;;;;;;5054658;28;19920;-69
2022/04/08 00:22:23;;;;;;;;;;;7.80;91.40;;;;;;5052914;28;19916;-69
2022/04/08 00:24:49;;;;;;;;;;;7.80;91.60;;;;;;5058998;28;19984;-68
2022/04/08 00:27:14;;;;;;;;;;;7.80;91.90;;;;;;5056499;28;19920;-69
2022/04/08 00:29:40;;;;;;;;;;;7.80;91.60;;;;;;5046123;28;20349;-68
2022/04/08 00:32:06;;;;;;;;;;;7.80;91.60;;;;;;5043765;28;19913;-68
2022/04/08 00:34:31;;;;;;;;;;;7.80;91.70;;;;;;5060275;28;19912;-69
2022/04/08 00:36:57;;;;;;;;;;;7.80;91.70;;;;;;5053910;28;19913;-68
2022/04/08 00:39:22;;;;;;;;;;;7.80;91.70;;;;;;5051956;28;19924;-69
2022/04/08 00:41:48;;;;;;;;;;;7.80;91.70;;;;;;5055960;28;19959;-69
2022/04/08 00:44:14;;;;;;;;;;;7.80;91.70;;;;;;5051336;28;19913;-69
2022/04/08 00:46:39;;;;;;;;;;;7.70;91.80;;;;;;5050138;28;20403;-68
2022/04/08 00:49:05;;;;;;;;;;;7.70;91.80;;;;;;5054540;28;20017;-68
2022/04/08 00:51:34;;;;;;;;;;;7.70;91.90;;;;;;5061412;28;19912;-68
2022/04/08 00:54:00;;;;;;;;;;;7.70;91.90;;;;;;5057848;28;19960;-69
2022/04/08 00:56:27;;;;;;;;;;;7.70;91.90;;;;;;5056746;28;20397;-69
2022/04/08 00:58:54;;;;;;;;;;;7.70;91.90;;;;;;5042034;28;19916;-68
2022/04/08 01:01:19;;;;;;;;;;;7.70;91.90;;;;;;5063433;28;19936;-69
2022/04/08 01:03:46;;;;;;;;;;;7.60;92.00;;;;;;5055069;28;20308;-69
2022/04/08 01:06:12;;;;;;;;;;;7.60;92.00;;;;;;5056267;28;20458;-68
2022/04/08 01:08:38;;;;;;;;;;;7.70;92.30;;;;;;5059042;28;19913;-68
2022/04/08 01:11:04;;;;;;;;;;;7.70;92.00;;;;;;5057747;28;19947;-68
2022/04/08 01:13:29;;;;;;;;;;;7.70;91.90;;;;;;5053747;28;19912;-68
2022/04/08 01:15:55;;;;;;;;;;;7.70;92.00;;;;;;5058805;28;19952;-68
2022/04/08 01:18:20;;;;;;;;;;;7.60;92.00;;;;;;5036987;28;19908;-68
2022/04/08 01:20:46;;;;;;;;;;;7.60;91.90;;;;;;5058905;28;19912;-68
2022/04/08 01:23:12;;;;;;;;;;;7.60;92.00;;;;;;5056296;28;20006;-68
2022/04/08 01:25:37;;;;;;;;;;;7.60;92.00;;;;;;5061066;28;19913;-68
2022/04/08 01:28:03;;;;;;;;;;;7.60;91.90;;;;;;5052360;28;19940;-68
2022/04/08 01:30:28;;;;;;;;;;;7.60;91.90;;;;;;5056717;28;19912;-68
2022/04/08 01:32:54;;;;;;;;;;;7.60;92.00;;;;;;5057491;28;20495;-69
2022/04/08 01:35:19;;;;;;;;;;;7.60;92.00;;;;;;5053588;28;19995;-68
2022/04/08 01:37:45;;;;;;;;;;;7.60;92.10;;;;;;5055705;28;19913;-68
2022/04/08 01:40:10;;;;;;;;;;;7.50;92.00;;;;;;5055905;28;19913;-69
2022/04/08 01:42:36;;;;;;;;;;;7.60;92.00;;;;;;5054977;28;19923;-68
2022/04/08 01:45:02;;;;;;;;;;;7.50;92.00;;;;;;5050712;28;20569;-68
2022/04/08 01:47:27;;;;;;;;;;;7.50;92.20;;;;;;5054205;28;20522;-68
2022/04/08 01:49:53;;;;;;;;;;;7.50;91.90;;;;;;5058645;28;19916;-68
2022/04/08 01:52:18;;;;;;;;;;;7.50;91.90;;;;;;5054608;28;19915;-68
2022/04/08 01:54:44;;;;;;;;;;;7.50;91.90;;;;;;5047573;28;20006;-68
2022/04/08 01:57:09;;;;;;;;;;;7.50;92.00;;;;;;5052036;28;20007;-69
2022/04/08 01:59:35;;;;;;;;;;;7.50;91.90;;;;;;5041042;28;20008;-69
2022/04/08 02:02:02;;;;;;;;;;;7.50;91.90;;;;;;5048186;28;20011;-68
2022/04/08 02:04:28;;;;;;;;;;;7.50;91.90;;;;;;5051899;28;19912;-69
2022/04/08 02:06:54;;;;;;;;;;;7.40;91.80;;;;;;5056292;28;20571;-69
2022/04/08 02:09:20;;;;;;;;;;;7.40;91.80;;;;;;5053530;28;19967;-69
2022/04/08 02:11:45;;;;;;;;;;;7.40;91.80;;;;;;5054569;28;20370;-68
2022/04/08 02:14:11;;;;;;;;;;;7.40;91.80;;;;;;5054000;28;19913;-69
2022/04/08 02:16:36;;;;;;;;;;;7.40;91.80;;;;;;5054756;28;19967;-69
2022/04/08 02:19:02;;;;;;;;;;;7.40;91.80;;;;;;5056074;28;19942;-69
2022/04/08 02:21:28;;;;;;;;;;;7.40;91.70;;;;;;5054979;28;19909;-69
2022/04/08 02:23:54;;;;;;;;;;;7.40;91.60;;;;;;5058455;28;19916;-69
2022/04/08 02:26:20;;;;;;;;;;;7.30;91.70;;;;;;5051838;28;20254;-69
2022/04/08 02:28:45;;;;;;;;;;;7.30;91.70;;;;;;5056546;28;19912;-69
2022/04/08 02:31:11;;;;;;;;;;;7.30;91.70;;;;;;5053376;28;19916;-69
2022/04/08 02:33:36;;;;;;;;;;;7.30;91.70;;;;;;5057946;28;20015;-69
2022/04/08 02:36:03;;;;;;;;;;;7.30;91.70;;;;;;5056426;28;19913;-69
2022/04/08 02:38:28;;;;;;;;;;;7.30;91.70;;;;;;5057573;28;19909;-68
2022/04/08 02:40:54;;;;;;;;;;;7.30;91.60;;;;;;5062415;28;19920;-69
2022/04/08 02:43:19;;;;;;;;;;;7.30;91.60;;;;;;5053505;28;20029;-69
2022/04/08 02:45:44;;;;;;;;;;;7.30;91.60;;;;;;5054309;28;20023;-69
2022/04/08 02:48:13;;;;;;;;;;;7.20;91.50;;;;;;5061818;28;19963;-69
2022/04/08 02:50:40;;;;;;;;;;;7.30;92.00;;;;;;5055354;28;20001;-68
2022/04/08 02:53:05;;;;;;;;;;;7.30;91.70;;;;;;5057713;28;19913;-69
2022/04/08 02:55:30;;;;;;;;;;;7.20;91.50;;;;;;5056072;28;19912;-69
2022/04/08 02:57:56;;;;;;;;;;;7.20;91.60;;;;;;5061824;28;20034;-69
2022/04/08 03:00:21;;;;;;;;;;;7.20;91.60;;;;;;5055775;28;19912;-68
2022/04/08 03:02:48;;;;;;;;;;;7.20;91.60;;;;;;5056318;28;19975;-69
2022/04/08 03:05:14;;;;;;;;;;;7.20;91.60;;;;;;5061180;28;19951;-69
2022/04/08 03:07:39;;;;;;;;;;;7.20;91.60;;;;;;5057549;28;20013;-69
2022/04/08 03:10:06;;;;;;;;;;;7.20;91.60;;;;;;5054405;28;20360;-69
2022/04/08 03:12:32;;;;;;;;;;;7.20;91.60;;;;;;5053883;28;19923;-68
2022/04/08 03:14:58;;;;;;;;;;;7.20;91.50;;;;;;5058043;28;19912;-68
2022/04/08 03:17:23;;;;;;;;;;;7.20;91.60;;;;;;5059552;28;19912;-69
2022/04/08 03:19:49;;;;;;;;;;;7.20;91.60;;;;;;5060318;28;20576;-69
2022/04/08 03:22:14;;;;;;;;;;;7.20;91.60;;;;;;5043278;28;19916;-69
2022/04/08 03:24:40;;;;;;;;;;;7.20;91.60;;;;;;5057648;28;19912;-69
2022/04/08 03:27:05;;;;;;;;;;;7.20;91.60;;;;;;5056493;28;19939;-69
2022/04/08 03:29:31;;;;;;;;;;;7.20;91.50;;;;;;5056201;28;19985;-69
2022/04/08 03:31:56;;;;;;;;;;;7.20;91.60;;;;;;5056339;28;19912;-69
2022/04/08 03:34:22;;;;;;;;;;;7.20;91.60;;;;;;5036515;28;19913;-68
2022/04/08 03:36:47;;;;;;;;;;;7.20;91.60;;;;;;5052095;28;19917;-68
2022/04/08 03:39:13;;;;;;;;;;;7.20;91.50;;;;;;5056051;28;20070;-69
2022/04/08 03:41:39;;;;;;;;;;;7.20;91.60;;;;;;5053665;28;19920;-69
2022/04/08 03:44:05;;;;;;;;;;;7.20;91.70;;;;;;5053160;28;20035;-69
2022/04/08 03:46:30;;;;;;;;;;;7.10;91.60;;;;;;5052996;28;19913;-69
2022/04/08 03:48:56;;;;;;;;;;;7.20;91.60;;;;;;5061520;28;19951;-69
2022/04/08 03:51:21;;;;;;;;;;;7.20;91.60;;;;;;5059232;28;19974;-69
2022/04/08 03:53:48;;;;;;;;;;;7.10;91.60;;;;;;5051436;28;21538;-69
2022/04/08 03:56:14;;;;;;;;;;;7.10;91.70;;;;;;5054139;28;19913;-69
2022/04/08 03:58:40;;;;;;;;;;;7.10;91.70;;;;;;5056257;28;20283;-69
2022/04/08 04:01:05;;;;;;;;;;;7.10;91.80;;;;;;5060467;28;19917;-69
2022/04/08 04:03:30;;;;;;;;;;;7.10;91.90;;;;;;5055280;28;19924;-69
2022/04/08 04:05:56;;;;;;;;;;;7.10;91.70;;;;;;5060060;28;20436;-69
2022/04/08 04:08:21;;;;;;;;;;;7.10;91.70;;;;;;5046676;28;19999;-69
2022/04/08 04:10:48;;;;;;;;;;;7.10;91.70;;;;;;5052109;28;19917;-69
2022/04/08 04:13:14;;;;;;;;;;;7.00;91.70;;;;;;5055147;28;19916;-69
2022/04/08 04:15:39;;;;;;;;;;;7.00;91.60;;;;;;5052221;28;19973;-69
2022/04/08 04:18:05;;;;;;;;;;;7.10;91.70;;;;;;5053045;28;20222;-69
2022/04/08 04:20:31;;;;;;;;;;;7.00;91.70;;;;;;5057616;28;19913;-69
2022/04/08 04:22:56;;;;;;;;;;;7.00;91.60;;;;;;5058284;28;20075;-69
2022/04/08 04:25:22;;;;;;;;;;;7.00;91.60;;;;;;5051380;28;19912;-68
2022/04/08 04:27:47;;;;;;;;;;;7.00;91.40;;;;;;5054377;28;19927;-69
2022/04/08 04:30:13;;;;;;;;;;;7.00;91.60;;;;;;5055506;28;19913;-69
2022/04/08 04:32:38;;;;;;;;;;;7.00;91.60;;;;;;5044933;28;19916;-69
2022/04/08 04:35:06;;;;;;;;;;;7.00;91.60;;;;;;5056314;28;19912;-69
2022/04/08 04:37:38;;;;;;;;;;;7.00;91.60;;;;;;5051880;28;19913;-69
2022/04/08 04:40:04;;;;;;;;;;;7.00;91.60;;;;;;5055603;28;19947;-69
2022/04/08 04:42:30;;;;;;;;;;;7.00;91.60;;;;;;5052094;28;19916;-69
2022/04/08 04:44:56;;;;;;;;;;;7.00;91.60;;;;;;5053607;28;19913;-69
2022/04/08 04:47:21;;;;;;;;;;;7.00;91.60;;;;;;5051372;28;19917;-69
2022/04/08 04:49:47;;;;;;;;;;;7.00;91.60;;;;;;5055930;28;19912;-69
2022/04/08 04:52:13;;;;;;;;;;;6.90;91.60;;;;;;5056574;28;19912;-69
2022/04/08 04:54:38;;;;;;;;;;;7.00;91.50;;;;;;5049474;28;20004;-69
2022/04/08 04:57:04;;;;;;;;;;;6.90;91.60;;;;;;5058212;28;20314;-69
2022/04/08 04:59:30;;;;;;;;;;;6.90;91.50;;;;;;5053023;28;19913;-69
2022/04/08 05:01:55;;;;;;;;;;;6.90;91.50;;;;;;5053135;28;20356;-68
2022/04/08 05:04:21;;;;;;;;;;;6.90;91.50;;;;;;5058056;28;19916;-69
2022/04/08 05:06:46;;;;;;;;;;;7.00;91.50;;;;;;5052140;28;19913;-69
2022/04/08 05:09:12;;;;;;;;;;;6.90;91.50;;;;;;5054849;28;19924;-69
2022/04/08 05:11:37;;;;;;;;;;;6.90;91.50;;;;;;5052430;28;19912;-68
2022/04/08 05:14:03;;;;;;;;;;;6.90;91.60;;;;;;5054478;28;19958;-68
2022/04/08 05:16:28;;;;;;;;;;;6.90;91.50;;;;;;5049020;28;20008;-69
2022/04/08 05:18:54;;;;;;;;;;;6.90;91.50;;;;;;5052571;28;19917;-69
2022/04/08 05:21:19;;;;;;;;;;;6.90;91.60;;;;;;5053081;28;19913;-69
2022/04/08 05:23:45;;;;;;;;;;;6.90;91.60;;;;;;5053570;28;19917;-69
2022/04/08 05:26:10;;;;;;;;;;;6.90;91.50;;;;;;5053567;28;20253;-68
2022/04/08 05:28:36;;;;;;;;;;;6.90;91.60;;;;;;5051217;28;19951;-69
2022/04/08 05:31:01;;;;;;;;;;;6.90;91.50;;;;;;5051357;28;19946;-69
2022/04/08 05:33:27;;;;;;;;;;;6.90;91.60;;;;;;5053570;28;20332;-69
2022/04/08 05:35:53;;;;;;;;;;;6.90;91.50;;;;;;5043909;28;19924;-69
2022/04/08 05:38:19;;;;;;;;;;;6.90;91.50;;;;;;5053405;28;19965;-69
2022/04/08 05:40:44;;;;;;;;;;;6.90;91.50;;;;;;5052708;28;20330;-69
2022/04/08 05:43:10;;;;;;;;;;;6.90;91.40;;;;;;5053576;28;19916;-68
2022/04/08 05:45:35;;;;;;;;;;;6.90;91.40;;;;;;5054165;28;19940;-69
2022/04/08 05:48:04;;;;;;;;;;;6.90;91.50;;;;;;5054791;28;20652;-69
2022/04/08 05:50:30;;;;;;;;;;;6.90;91.50;;;;;;5053429;28;19913;-69
2022/04/08 05:52:55;;;;;;;;;;;6.80;91.40;;;;;;5053629;28;19974;-69
2022/04/08 05:55:21;;;;;;;;;;;6.80;91.50;;;;;;5041187;28;20691;-69
2022/04/08 05:57:47;;;;;;;;;;;6.90;91.50;;;;;;5054509;28;20003;-69
2022/04/08 06:00:13;;;;;;;;;;;6.80;91.50;;;;;;5073801;28;19921;-69
2022/04/08 06:02:39;;;;;;;;;;;6.90;91.40;;;;;;5054790;28;19916;-69
2022/04/08 06:05:05;;;;;;;;;;;6.90;91.40;;;;;;5057083;28;19920;-69
2022/04/08 06:07:31;;;;;;;;;;;6.90;91.40;;;;;;5050206;28;20491;-69
2022/04/08 06:09:59;;;;;;;;;;;6.90;91.40;;;;;;5054174;28;19971;-69
2022/04/08 06:12:24;;;;;;;;;;;6.90;91.40;;;;;;5052130;28;19955;-69
2022/04/08 06:14:50;;;;;;;;;;;6.90;91.40;;;;;;5051688;28;20401;-69
2022/04/08 06:17:15;;;;;;;;;;;6.90;91.40;;;;;;5053750;28;19913;-69
2022/04/08 06:19:45;;;;;;;;;;;6.90;91.40;;;;;;5051187;28;20328;-69
2022/04/08 06:22:11;;;;;;;;;;;6.90;91.30;;;;;;5051889;28;19931;-68
2022/04/08 06:24:36;;;;;;;;;;;7.00;91.30;;;;;;5053584;28;19917;-69
2022/04/08 06:27:02;;;;;;;;;;;7.00;91.20;;;;;;5056499;28;19952;-69
2022/04/08 06:29:27;;;;;;;;;;;7.00;91.30;;;;;;5051884;28;20346;-69
2022/04/08 06:31:53;;;;;;;;;;;7.10;91.30;;;;;;5049740;28;20427;-69
2022/04/08 06:34:18;;;;;;;;;;;7.10;91.20;;;;;;5052735;28;20637;-69
2022/04/08 06:36:43;;;;;;;;;;;7.10;91.50;;;;;;5051473;28;20633;-69
2022/04/08 06:39:09;;;;;;;;;;;7.10;91.20;;;;;;5045284;28;19913;-69
2022/04/08 06:41:35;;;;;;;;;;;7.10;91.20;;;;;;5051379;28;19920;-69
2022/04/08 06:44:02;;;;;;;;;;;7.20;91.20;;;;;;5051795;28;19917;-69
2022/04/08 06:46:27;;;;;;;;;;;7.20;91.10;;;;;;5053694;28;20035;-69
2022/04/08 06:48:54;;;;;;;;;;;7.20;91.10;;;;;;5052035;28;20028;-69
2022/04/08 06:51:20;;;;;;;;;;;7.20;91.10;;;;;;5053350;28;19921;-69
2022/04/08 06:53:45;;;;;;;;;;;7.20;91.00;;;;;;5054464;28;19912;-69
2022/04/08 06:56:11;;;;;;;;;;;7.20;91.00;;;;;;5049587;28;20003;-69
2022/04/08 06:58:39;;;;;;;;;;;7.20;91.00;;;;;;5053283;28;19912;-69
2022/04/08 07:01:06;;;;;;;;;;;7.30;91.00;;;;;;5059524;28;19999;-69
2022/04/08 07:03:31;;;;;;;;;;;7.30;90.90;;;;;;5057978;28;19916;-69
2022/04/08 07:05:57;;;;;;;;;;;7.30;91.00;;;;;;5053416;28;19919;-69
2022/04/08 07:08:22;;;;;;;;;;;7.30;90.90;;;;;;5051377;28;19913;-69
2022/04/08 07:10:48;;;;;;;;;;;7.30;90.90;;;;;;5053022;28;19959;-68
2022/04/08 07:13:13;;;;;;;;;;;7.30;91.00;;;;;;5051577;28;20361;-69
2022/04/08 07:15:39;;;;;;;;;;;7.30;91.00;;;;;;5051847;28;19955;-69
2022/04/08 07:18:04;;;;;;;;;;;7.30;91.00;;;;;;5055981;28;20305;-69
2022/04/08 07:20:30;;;;;;;;;;;7.40;90.90;;;;;;5055529;28;19916;-69
2022/04/08 07:23:01;;;;;;;;;;;7.40;90.90;;;;;;5051431;28;19916;-68
2022/04/08 07:25:27;;;;;;;;;;;7.30;90.70;;;;;;5058941;28;20319;-69
2022/04/08 07:27:52;;;;;;;;;;;7.40;90.80;;;;;;5048177;28;19917;-69
2022/04/08 07:30:19;;;;;;;;;;;7.50;91.00;;;;;;5039149;28;19916;-69
2022/04/08 07:32:52;;;;;;;;;;;7.60;90.60;;;;;;5055537;28;19912;-69
2022/04/08 07:35:18;;;;;;;;;;;7.60;90.60;;;;;;5059632;28;19987;-69
2022/04/08 07:37:44;;;;;;;;;;;7.60;90.50;;;;;;5054370;28;19913;-69
2022/04/08 07:40:10;;;;;;;;;;;7.70;90.40;;;;;;5053923;28;20020;-69
2022/04/08 07:42:36;;;;;;;;;;;7.70;90.40;;;;;;5056183;28;19917;-69
2022/04/08 07:45:03;;;;;;;;;;;7.80;90.40;;;;;;5052146;28;19958;-69
2022/04/08 07:47:28;;;;;;;;;;;7.80;90.30;;;;;;5055793;28;19913;-68
2022/04/08 07:49:58;;;;;;;;;;;7.80;90.30;;;;;;5056447;28;20517;-69
2022/04/08 07:52:23;;;;;;;;;;;7.80;90.20;;;;;;5058831;28;20133;-69
2022/04/08 07:54:49;;;;;;;;;;;7.90;90.20;;;;;;5052440;28;20519;-69
2022/04/08 07:57:14;;;;;;;;;;;7.90;90.20;;;;;;5059729;28;19990;-69
2022/04/08 07:59:40;;;;;;;;;;;8.00;90.00;;;;;;5058625;28;19917;-69
2022/04/08 08:02:05;;;;;;;;;;;8.00;90.00;;;;;;5057791;28;19916;-69
2022/04/08 08:04:31;;;;;;;;;;;8.10;89.90;;;;;;5054499;28;20496;-69
2022/04/08 08:06:56;;;;;;;;;;;8.10;89.70;;;;;;5056145;28;19920;-69
2022/04/08 08:09:22;;;;;;;;;;;8.20;89.70;;;;;;5059617;28;19958;-69
2022/04/08 08:11:47;;;;;;;;;;;8.20;89.60;;;;;;5053491;28;19909;-69
2022/04/08 08:14:13;;;;;;;;;;;8.20;89.50;;;;;;5049220;28;20373;-69
2022/04/08 08:16:38;;;;;;;;;;;8.30;89.30;;;;;;5055198;28;20026;-69
2022/04/08 08:19:04;;;;;;;;;;;8.30;89.10;;;;;;5057469;28;19913;-69
2022/04/08 08:21:29;;;;;;;;;;;8.30;89.00;;;;;;5054263;28;19920;-69
2022/04/08 08:23:55;;;;;;;;;;;8.40;88.90;;;;;;5054244;28;19955;-69
2022/04/08 08:26:21;;;;;;;;;;;8.40;88.70;;;;;;5057633;28;19908;-68
2022/04/08 08:28:46;;;;;;;;;;;8.40;88.60;;;;;;5045231;28;20742;-69
2022/04/08 08:31:12;;;;;;;;;;;8.40;88.60;;;;;;5058119;28;20351;-69
2022/04/08 08:33:39;;;;;;;;;;;8.50;88.50;;;;;;5052920;28;19932;-69
2022/04/08 08:36:06;;;;;;;;;;;8.50;88.40;;;;;;5056448;28;19946;-69
2022/04/08 08:38:31;;;;;;;;;;;8.50;88.50;;;;;;5052711;28;19928;-68
2022/04/08 08:40:57;;;;;;;;;;;8.50;88.10;;;;;;5046472;28;19913;-69
2022/04/08 08:43:22;;;;;;;;;;;8.60;88.30;;;;;;5060012;28;19964;-69
2022/04/08 08:45:48;;;;;;;;;;;8.60;88.40;;;;;;5055534;28;19936;-69
2022/04/08 08:48:15;;;;;;;;;;;8.60;87.80;;;;;;5054241;28;19961;-69
2022/04/08 08:50:45;;;;;;;;;;;8.60;88.40;;;;;;5056284;28;19917;-69
2022/04/08 08:53:11;;;;;;;;;;;8.60;88.50;;;;;;5059624;28;19924;-69
2022/04/08 08:55:36;;;;;;;;;;;8.60;88.40;;;;;;5055344;28;19912;-69
2022/04/08 08:58:02;;;;;;;;;;;8.70;88.50;;;;;;5054061;28;19921;-69
2022/04/08 09:00:27;;;;;;;;;;;8.70;88.30;;;;;;5059267;28;19923;-69
2022/04/08 09:02:53;;;;;;;;;;;8.70;88.50;;;;;;5056286;28;19916;-69
2022/04/08 09:05:20;;;;;;;;;;;8.70;88.40;;;;;;5042854;28;20390;-69
2022/04/08 09:07:57;;;;;;;;;;;8.80;88.50;;;;;;5055342;28;20396;-69
2022/04/08 09:10:24;;;;;;;;;;;8.80;88.30;;;;;;5038369;28;19917;-69
2022/04/08 09:12:52;;;;;;;;;;;8.80;87.90;;;;;;5052170;28;20007;-69
2022/04/08 09:15:18;;;;;;;;;;;8.80;88.00;;;;;;5054715;28;19995;-69
2022/04/08 09:17:43;;;;;;;;;;;8.80;88.20;;;;;;5059597;28;19999;-69
2022/04/08 09:20:11;;;;;;;;;;;8.80;88.00;;;;;;5062726;28;20329;-69
2022/04/08 09:22:36;;;;;;;;;;;8.90;87.80;;;;;;5053186;28;20354;-69
2022/04/08 09:25:10;;;;;;;;;;;8.90;87.70;;;;;;5056655;28;19989;-69
2022/04/08 09:27:40;;;;;;;;;;;8.90;88.10;;;;;;5057248;28;19913;-69
2022/04/08 09:30:07;;;;;;;;;;;9.00;87.90;;;;;;5055944;28;20541;-68
2022/04/08 09:32:33;;;;;;;;;;;9.00;88.00;;;;;;5054813;28;19920;-69
2022/04/08 09:34:59;;;;;;;;;;;9.00;87.20;;;;;;5057672;28;19913;-69
2022/04/08 09:37:24;;;;;;;;;;;9.00;87.50;;;;;;5047529;28;20329;-68
2022/04/08 09:40:00;;;;;;;;;;;9.10;87.60;;;;;;5044476;28;20497;-69
2022/04/08 09:42:45;;;;;;;;;;;9.10;87.30;;;;;;5058091;28;19917;-68
2022/04/08 09:45:11;;;;;;;;;;;9.20;87.00;;;;;;5040525;28;19919;-69
2022/04/08 09:47:37;;;;;;;;;;;9.20;86.90;;;;;;5054226;28;19921;-69
2022/04/08 09:50:03;;;;;;;;;;;9.30;86.90;;;;;;5056938;28;20435;-68
2022/04/08 09:52:29;;;;;;;;;;;9.30;86.80;;;;;;5043247;28;20400;-69
2022/04/08 09:54:57;;;;;;;;;;;9.30;86.40;;;;;;5051283;28;20007;-69
2022/04/08 09:57:23;;;;;;;;;;;9.40;86.10;;;;;;5056946;28;19917;-69
2022/04/08 09:59:52;;;;;;;;;;;9.40;86.50;;;;;;5058394;28;20365;-69
2022/04/08 10:02:18;;;;;;;;;;;9.40;86.30;;;;;;5054933;28;19917;-69
2022/04/08 10:04:44;;;;;;;;;;;9.40;86.10;;;;;;5054125;28;19913;-69
2022/04/08 10:07:10;;;;;;;;;;;9.50;86.40;;;;;;5056397;28;19912;-69
2022/04/08 10:09:42;;;;;;;;;;;9.50;86.40;;;;;;5060470;28;20261;-69
2022/04/08 10:12:10;;;;;;;;;;;9.40;86.30;;;;;;5047015;28;20700;-69
2022/04/08 10:14:54;;;;;;;;;;;9.50;86.00;;;;;;5055565;28;19957;-69
2022/04/08 10:17:20;;;;;;;;;;;9.50;85.80;;;;;;5056670;28;20288;-69
2022/04/08 10:19:45;;;;;;;;;;;9.50;85.90;;;;;;5054383;28;19912;-69
2022/04/08 10:22:16;;;;;;;;;;;9.60;85.80;;;;;;5051539;28;19917;-69
2022/04/08 10:24:50;;;;;;;;;;;9.60;85.90;;;;;;5058987;28;19924;-69
2022/04/08 10:27:26;;;;;;;;;;;9.60;85.70;;;;;;5060942;28;19912;-69
2022/04/08 10:29:55;;;;;;;;;;;9.60;85.20;;;;;;5057193;28;20374;-69
2022/04/08 10:32:21;;;;;;;;;;;9.60;84.60;;;;;;5052639;28;19935;-68
2022/04/08 10:34:47;;;;;;;;;;;9.70;85.30;;;;;;5057498;28;19939;-69
2022/04/08 10:37:21;;;;;;;;;;;9.70;85.30;;;;;;5042371;28;20261;-68
2022/04/08 10:39:59;;;;;;;;;;;9.70;85.10;;;;;;5043730;28;19921;-68
2022/04/08 10:42:25;;;;;;;;;;;9.70;84.90;;;;;;5054335;28;20323;-69
2022/04/08 10:44:50;;;;;;;;;;;9.80;84.50;;;;;;5053208;28;19913;-68
2022/04/08 10:47:17;;;;;;;;;;;9.80;84.70;;;;;;5050899;28;20265;-68
2022/04/08 10:49:47;;;;;;;;;;;9.80;84.70;;;;;;5057124;28;19913;-69
2022/04/08 10:52:17;;;;;;;;;;;9.80;84.20;;;;;;5060668;28;19964;-69
2022/04/08 10:54:42;;;;;;;;;;;9.80;84.50;;;;;;5054979;28;19912;-69
2022/04/08 10:57:08;;;;;;;;;;;9.80;84.50;;;;;;5058466;28;20385;-68
2022/04/08 10:59:33;;;;;;;;;;;9.80;84.80;;;;;;5064351;28;20087;-69
2022/04/08 11:02:02;;;;;;;;;;;9.90;84.50;;;;;;5062818;28;20015;-69
2022/04/08 11:04:29;;;;;;;;;;;9.90;83.90;;;;;;5062596;28;19944;-69
2022/04/08 11:06:55;;;;;;;;;;;9.90;83.70;;;;;;5056778;28;19913;-68
2022/04/08 11:09:21;;;;;;;;;;;9.90;83.30;;;;;;5064195;28;19920;-68
2022/04/08 11:11:52;;;;;;;;;;;9.90;83.90;;;;;;5054188;28;20393;-69
2022/04/08 11:14:17;;;;;;;;;;;9.90;83.90;;;;;;5041096;28;19966;-69
2022/04/08 11:16:43;;;;;;;;;;;10.00;83.40;;;;;;5062067;28;19989;-68
2022/04/08 11:19:10;;;;;;;;;;;10.00;83.60;;;;;;5047585;28;20348;-68
2022/04/08 11:21:36;;;;;;;;;;;10.00;84.10;;;;;;5057297;28;19916;-68
2022/04/08 11:24:03;;;;;;;;;;;10.00;83.90;;;;;;5060340;28;19916;-69
2022/04/08 11:26:29;;;;;;;;;;;10.10;84.00;;;;;;5063570;28;19908;-68
2022/04/08 11:29:09;;;;;;;;;;;10.10;84.00;;;;;;5040182;28;19909;-68
2022/04/08 11:31:35;;;;;;;;;;;10.10;83.70;;;;;;5057870;28;20005;-68
2022/04/08 11:34:01;;;;;;;;;;;10.10;83.50;;;;;;5062749;28;19913;-68
2022/04/08 11:36:27;;;;;;;;;;;10.10;83.30;;;;;;5063627;28;20595;-68
2022/04/08 11:38:52;;;;;;;;;;;10.20;83.50;;;;;;5056835;28;20357;-68
2022/04/08 11:41:19;;;;;;;;;;;10.20;83.50;;;;;;5060849;28;19916;-68
2022/04/08 11:43:45;;;;;;;;;;;10.20;83.40;;;;;;5046899;28;19934;-68
2022/04/08 11:46:14;;;;;;;;;;;10.20;83.20;;;;;;5038171;28;19916;-69
2022/04/08 11:48:40;;;;;;;;;;;10.20;83.40;;;;;;5040859;28;20327;-68
2022/04/08 11:51:06;;;;;;;;;;;10.20;83.40;;;;;;5061227;28;19917;-68
2022/04/08 11:53:40;;;;;;;;;;;10.30;82.80;;;;;;5060183;28;19909;-68
2022/04/08 11:56:07;;;;;;;;;;;10.30;82.80;;;;;;5057457;28;20557;-69
2022/04/08 11:58:32;;;;;;;;;;;10.30;83.00;;;;;;5060062;28;19912;-68
2022/04/08 12:00:59;;;;;;;;;;;10.30;83.20;;;;;;5064161;28;19914;-68
2022/04/08 12:03:28;;;;;;;;;;;10.30;83.00;;;;;;5060031;28;19920;-69
2022/04/08 12:05:54;;;;;;;;;;;10.30;82.80;;;;;;5061716;28;19919;-68
2022/04/08 12:08:19;;;;;;;;;;;10.30;82.60;;;;;;5060349;28;19912;-68
2022/04/08 12:10:49;;;;;;;;;;;10.40;82.40;;;;;;5054716;28;19913;-69
2022/04/08 12:13:34;;;;;;;;;;;10.30;82.20;;;;;;5062347;28;19920;-68
2022/04/08 12:15:59;;;;;;;;;;;10.40;83.10;;;;;;5062854;28;19913;-69
2022/04/08 12:18:29;;;;;;;;;;;10.40;82.70;;;;;;5064517;28;19919;-69
2022/04/08 12:20:55;;;;;;;;;;;10.40;82.60;;;;;;5052223;28;20003;-68
2022/04/08 12:23:24;;;;;;;;;;;10.40;82.30;;;;;;5057219;28;20039;-68
2022/04/08 12:26:02;;;;;;;;;;;10.50;81.40;;;;;;5062322;28;19963;-68
2022/04/08 12:28:30;;;;;;;;;;;10.50;82.30;;;;;;5060356;28;20328;-68
2022/04/08 12:30:55;;;;;;;;;;;10.50;81.50;;;;;;5060789;28;19912;-68
2022/04/08 12:33:21;;;;;;;;;;;10.50;82.30;;;;;;5058017;28;19938;-68
2022/04/08 12:35:46;;;;;;;;;;;10.50;82.30;;;;;;5061082;28;19912;-68
2022/04/08 12:38:14;;;;;;;;;;;10.50;82.40;;;;;;5057446;28;19955;-68
2022/04/08 12:40:40;;;;;;;;;;;10.50;81.80;;;;;;5061769;28;20388;-68
2022/04/08 12:43:06;;;;;;;;;;;10.50;81.90;;;;;;5063926;28;19932;-68
2022/04/08 12:45:32;;;;;;;;;;;10.50;82.30;;;;;;5053503;28;20606;-68
2022/04/08 12:47:57;;;;;;;;;;;10.50;81.80;;;;;;5039957;28;19920;-68
2022/04/08 12:50:23;;;;;;;;;;;10.50;82.60;;;;;;5047447;28;19916;-68
2022/04/08 12:52:49;;;;;;;;;;;10.50;82.00;;;;;;5046641;28;20011;-68
2022/04/08 12:55:14;;;;;;;;;;;10.50;81.80;;;;;;5055402;28;20004;-68
2022/04/08 12:57:41;;;;;;;;;;;10.50;81.70;;;;;;5057688;28;20000;-68
2022/04/08 13:00:11;;;;;;;;;;;10.60;82.20;;;;;;5062729;28;20015;-69
2022/04/08 13:02:45;;;;;;;;;;;10.60;82.40;;;;;;5040561;28;19916;-68
2022/04/08 13:05:10;;;;;;;;;;;10.60;82.20;;;;;;5058277;28;20014;-68
2022/04/08 13:07:36;;;;;;;;;;;10.60;81.90;;;;;;5058175;28;20534;-68
2022/04/08 13:10:02;;;;;;;;;;;10.60;81.80;;;;;;5060246;28;19909;-68
2022/04/08 13:12:27;;;;;;;;;;;10.60;82.20;;;;;;5053599;28;19912;-69
2022/04/08 13:14:54;;;;;;;;;;;10.60;81.60;;;;;;5058116;28;19999;-68
2022/04/08 13:17:19;;;;;;;;;;;10.60;81.80;;;;;;5061277;28;19908;-68
2022/04/08 13:19:45;;;;;;;;;;;10.60;81.20;;;;;;5061804;28;19924;-68
2022/04/08 13:22:12;;;;;;;;;;;10.60;81.60;;;;;;5060685;28;19928;-68
2022/04/08 13:24:37;;;;;;;;;;;10.60;82.00;;;;;;5057687;28;19918;-69
2022/04/08 13:27:03;;;;;;;;;;;10.60;82.20;;;;;;5058871;28;19917;-69
2022/04/08 13:29:29;;;;;;;;;;;10.60;82.40;;;;;;5056787;28;19909;-68
2022/04/08 13:31:54;;;;;;;;;;;10.60;81.90;;;;;;5056023;28;19922;-68
2022/04/08 13:34:20;;;;;;;;;;;10.60;81.90;;;;;;5055866;28;20493;-69
2022/04/08 13:36:46;;;;;;;;;;;10.60;82.00;;;;;;5058178;28;20254;-68
2022/04/08 13:39:11;;;;;;;;;;;10.60;82.00;;;;;;5053627;28;19962;-68
2022/04/08 13:41:37;;;;;;;;;;;10.60;81.60;;;;;;5059318;28;20022;-68
2022/04/08 13:44:02;;;;;;;;;;;10.60;82.00;;;;;;5053846;28;19920;-68
2022/04/08 13:46:28;;;;;;;;;;;10.60;81.90;;;;;;5048303;28;19925;-68
2022/04/08 13:48:56;;;;;;;;;;;10.60;82.20;;;;;;5053651;28;19924;-69
2022/04/08 13:51:25;;;;;;;;;;;10.50;82.10;;;;;;5060567;28;19919;-68
2022/04/08 13:53:53;;;;;;;;;;;10.50;81.10;;;;;;5058340;28;19917;-68
2022/04/08 13:56:19;;;;;;;;;;;10.50;81.80;;;;;;5053474;28;19916;-68
2022/04/08 13:58:44;;;;;;;;;;;10.50;80.50;;;;;;5058873;28;19912;-69
2022/04/08 14:01:10;;;;;;;;;;;10.50;82.00;;;;;;5059793;28;20568;-69
2022/04/08 14:03:36;;;;;;;;;;;10.50;81.90;;;;;;5049827;28;20324;-68
2022/04/08 14:06:01;;;;;;;;;;;10.60;81.90;;;;;;5055904;28;19919;-69
2022/04/08 14:08:27;;;;;;;;;;;10.60;82.00;;;;;;5058727;28;19920;-68
2022/04/08 14:10:52;;;;;;;;;;;10.60;81.70;;;;;;5050714;28;19935;-68
2022/04/08 14:13:18;;;;;;;;;;;10.60;81.70;;;;;;5050558;28;19915;-69
2022/04/08 14:15:44;;;;;;;;;;;10.60;81.70;;;;;;5058471;28;20441;-69
2022/04/08 14:18:10;;;;;;;;;;;10.60;81.60;;;;;;5055593;28;20386;-68
2022/04/08 14:20:35;;;;;;;;;;;10.70;81.60;;;;;;5058993;28;20033;-68